FW0014 Weather Reports


time (UTC)temp
C
wind
direction
speed
KPH
gust
KPH
rain 1hr
cm
rain 24hr
cm
rain mn
cm
humidity
%
barometer
mb
20240614130103 23 146 0.0 1.6 0.00 0.00 0.00 92 1014.7
20240614125828 23 146 0.0 1.6 0.00 0.00 0.00 92 1017.5
20240614125553 22 146 0.0 1.6 0.00 0.00 0.00 92 1014.8
20240614125326 23 146 0.0 1.6 0.00 0.00 0.00 93 1017.5
20240614125046 22 145 0.0 1.6 0.00 0.00 0.00 93 1014.7
20240614124840 22 145 0.0 1.6 0.00 0.00 0.00 93 1017.4
20240614124511 22 146 0.0 3.2 0.00 0.00 0.00 94 1014.5
20240614124317 22 146 0.0 3.2 0.00 0.00 0.00 93 1017.3
20240614124058 22 146 0.0 3.2 0.00 0.00 0.00 93 1014.6
20240614123815 22 145 3.2 3.2 0.00 0.00 0.00 94 1017.3
20240614123548 22 146 0.0 1.6 0.00 0.00 0.00 94 1014.5
20240614123313 22 146 1.6 1.6 0.00 0.00 0.00 94 1017.3
20240614123038 21 146 0.0 1.6 0.00 0.00 0.00 94 1014.6
20240614122831 22 146 0.0 1.6 0.00 0.00 0.00 94 1017.2
20240614122532 21 145 0.0 3.2 0.00 0.00 0.00 94 1014.5
20240614122328 22 146 0.0 3.2 0.00 0.00 0.00 94 1017.2
20240614122017 21 146 0.0 3.2 0.00 0.00 0.00 93 1014.5
20240614121826 21 145 1.6 4.8 0.00 0.00 0.00 93 1017.2
20240614121509 21 146 0.0 4.8 0.00 0.00 0.00 93 1014.3
20240614121324 21 146 1.6 4.8 0.00 0.00 0.00 93 1017.0
20240614121001 21 145 3.2 4.8 0.00 0.00 0.00 93 1014.4
20240614120822 21 145 4.8 4.8 0.00 0.00 0.00 93 1017.1
20240614120559 21 145 1.6 4.8 0.00 0.00 0.00 93 1014.3
20240614120320 21 146 3.2 4.8 0.00 0.00 0.00 93 1017.0
20240614120046 21 146 1.6 4.8 0.00 0.00 0.00 93 1014.4
20240614115818 21 146 4.8 4.8 0.00 0.00 0.00 93 1017.1
20240614115538 21 145 3.2 4.8 0.00 0.00 0.00 93 1014.4
20240614115316 21 145 3.2 4.8 0.00 0.00 0.00 93 1017.2
20240614115033 21 146 1.6 3.2 0.00 0.00 0.00 93 1014.6
20240614114840 21 146 1.6 3.2 0.00 0.00 0.00 93 1017.4
20240614114601 21 145 0.0 1.6 0.00 0.00 0.00 93 1014.6
20240614114331 21 145 0.0 1.6 0.00 0.00 0.00 93 1017.4
20240614114056 21 146 0.0 3.2 0.00 0.00 0.00 93 1014.6
20240614113828 21 146 0.0 3.2 0.00 0.00 0.00 93 1017.4
20240614113551 21 145 1.6 3.2 0.00 0.00 0.00 93 1014.8
20240614113324 22 145 0.0 1.6 0.00 0.00 0.00 93 1017.3
20240614113050 21 146 0.0 1.6 0.00 0.00 0.00 93 1014.6
20240614112844 21 146 0.0 0.0 0.00 0.00 0.00 93 1017.3
20240614112508 21 145 0.0 0.0 0.00 0.00 0.00 93 1014.4
20240614112320 21 146 0.0 0.0 0.00 0.00 0.00 93 1017.1
20240614112103 21 146 0.0 0.0 0.00 0.00 0.00 93 1014.3
20240614111817 22 146 0.0 1.6 0.00 0.00 0.00 93 1016.9
20240614111554 21 145 0.0 1.6 0.00 0.00 0.00 93 1014.2
20240614111421 22 146 0.0 1.6 0.00 0.00 0.00 93 1016.8
20240614111050 21 145 0.0 3.2 0.00 0.00 0.00 93 1014.2
20240614110829 22 145 0.0 3.2 0.00 0.00 0.00 93 1016.9
20240614110543 21 145 0.0 3.2 0.00 0.00 0.00 93 1014.2
20240614110346 21 145 1.6 3.2 0.00 0.00 0.00 93 1016.9
20240614110005 21 145 0.0 1.6 0.00 0.00 0.00 93 1014.2
20240614105823 21 145 1.6 1.6 0.00 0.00 0.00 93 1016.9
20240614105603 21 145 0.0 1.6 0.00 0.00 0.00 93 1014.3
20240614105321 21 145 0.0 0.0 0.00 0.00 0.00 93 1016.9
20240614105052 21 145 0.0 0.0 0.00 0.00 0.00 92 1014.2
20240614104818 21 146 0.0 0.0 0.00 0.00 0.00 92 1016.9
20240614104548 21 146 0.0 0.0 0.00 0.00 0.00 92 1014.1
20240614104315 21 146 0.0 0.0 0.00 0.00 0.00 92 1016.9
20240614104044 21 145 0.0 0.0 0.00 0.00 0.00 92 1014.1
20240614103831 21 145 0.0 1.6 0.00 0.00 0.00 92 1016.8
20240614103611 21 145 0.0 3.2 0.00 0.00 0.00 92 1014.2
20240614103316 21 146 0.0 3.2 0.00 0.00 0.00 92 1016.9
20240614103052 21 145 0.0 3.2 0.00 0.00 0.00 92 1014.2
20240614102832 22 145 1.6 3.2 0.00 0.00 0.00 92 1016.9
20240614102545 21 146 1.6 4.8 0.00 0.00 0.00 92 1014.3
20240614102328 22 145 3.2 4.8 0.00 0.00 0.00 92 1017.0
20240614102037 21 146 3.2 4.8 0.00 0.00 0.00 92 1014.2
20240614101823 22 145 3.2 4.8 0.00 0.00 0.00 92 1016.9
20240614101543 21 145 1.6 4.8 0.00 0.00 0.00 92 1014.1
20240614101320 22 146 3.2 4.8 0.00 0.00 0.00 92 1016.8
20240614101022 21 146 3.2 4.8 0.00 0.00 0.00 92 1014.1
20240614100816 22 145 3.2 3.2 0.00 0.00 0.00 91 1016.7
20240614100508 22 146 1.6 3.2 0.00 0.00 0.00 91 1013.9
20240614100348 22 146 3.2 3.2 0.00 0.00 0.00 92 1016.6
20240614100044 22 145 1.6 3.2 0.00 0.00 0.00 91 1013.7
20240614095824 22 146 3.2 3.2 0.00 0.00 0.00 91 1016.5
20240614095533 22 146 1.6 3.2 0.00 0.00 0.00 91 1013.6
20240614095341 22 146 1.6 3.2 0.00 0.00 0.00 91 1016.3
20240614095056 22 145 0.0 1.6 0.00 0.00 0.00 91 1013.4
20240614094840 22 145 1.6 1.6 0.00 0.00 0.00 91 1016.1
20240614094545 22 145 0.0 0.0 0.00 0.00 0.00 91 1013.3
20240614094331 22 145 0.0 0.0 0.00 0.00 0.00 91 1016.0
20240614094035 22 145 0.0 0.0 0.00 0.00 0.00 90 1013.3
20240614093828 22 146 0.0 0.0 0.00 0.00 0.00 90 1016.0
20240614093527 22 145 0.0 0.0 0.00 0.00 0.00 90 1013.3
20240614093324 22 146 0.0 0.0 0.00 0.00 0.00 90 1016.0
20240614093022 22 146 0.0 0.0 0.00 0.00 0.00 90 1013.3
20240614092819 22 145 0.0 0.0 0.00 0.00 0.00 90 1016.1
20240614092504 22 146 0.0 0.0 0.00 0.00 0.00 90 1013.3
20240614092336 22 145 0.0 0.0 0.00 0.00 0.00 90 1016.1
20240614092039 22 145 0.0 0.0 0.00 0.00 0.00 90 1013.3
20240614091832 22 145 0.0 0.0 0.00 0.00 0.00 90 1016.0
20240614091544 22 145 0.0 0.0 0.00 0.00 0.00 90 1013.2
20240614091329 22 146 0.0 0.0 0.00 0.00 0.00 90 1016.0
20240614091054 22 145 0.0 0.0 0.00 0.00 0.00 90 1013.3
20240614090828 22 146 0.0 0.0 0.00 0.00 0.00 90 1016.0
20240614090546 22 145 0.0 0.0 0.00 0.00 0.00 90 1013.3
20240614090327 22 145 0.0 0.0 0.00 0.00 0.00 90 1015.9
20240614090038 22 146 0.0 0.0 0.00 0.00 0.00 90 1013.1
20240614085825 22 145 0.0 0.0 0.00 0.00 0.00 90 1015.9
20240614085526 22 146 0.0 0.0 0.00 0.00 0.00 90 1013.2
20240614085343 22 145 0.0 0.0 0.00 0.00 0.00 90 1015.8
20240614085050 22 146 0.0 0.0 0.00 0.00 0.00 90 1013.2
20240614084838 22 145 0.0 0.0 0.00 0.00 0.00 90 1015.9
20240614084531 22 145 0.0 0.0 0.00 0.00 0.00 90 1013.2
20240614084333 22 146 0.0 0.0 0.00 0.00 0.00 89 1015.9
20240614084012 22 146 0.0 0.0 0.00 0.00 0.00 89 1013.1
20240614083828 22 146 0.0 0.0 0.00 0.00 0.00 89 1015.8
20240614083506 22 145 0.0 0.0 0.00 0.00 0.00 89 1013.1
20240614083324 22 145 0.0 0.0 0.00 0.00 0.00 89 1015.9
20240614083102 22 145 0.0 0.0 0.00 0.00 0.00 89 1013.2
20240614082822 22 145 0.0 0.0 0.00 0.00 0.00 89 1016.0
20240614082554 22 145 0.0 0.0 0.00 0.00 0.00 88 1013.3
20240614082320 22 145 0.0 0.0 0.00 0.00 0.00 88 1016.0
20240614082047 22 146 0.0 1.6 0.00 0.00 0.00 88 1013.4
20240614081838 22 145 0.0 3.2 0.00 0.00 0.00 89 1016.0
20240614081516 22 146 0.0 3.2 0.00 0.00 0.00 89 1013.3
20240614081314 23 145 1.6 3.2 0.00 0.00 0.00 89 1016.1
20240614081103 22 145 0.0 3.2 0.00 0.00 0.00 89 1013.3
20240614080833 23 146 0.0 0.0 0.00 0.00 0.00 89 1016.0
20240614080555 22 146 0.0 0.0 0.00 0.00 0.00 88 1013.2
20240614080328 23 145 0.0 0.0 0.00 0.00 0.00 88 1015.9
20240614080028 22 145 0.0 0.0 0.00 0.00 0.00 88 1013.2
20240614075825 23 145 0.0 0.0 0.00 0.00 0.00 88 1015.9
20240614075522 22 145 0.0 1.6 0.00 0.00 0.00 88 1013.2
20240614075324 23 146 0.0 1.6 0.00 0.00 0.00 88 1016.0
20240614075004 22 146 0.0 1.6 0.00 0.00 0.00 88 1013.2
20240614074822 23 145 0.0 1.6 0.00 0.00 0.00 88 1015.9
20240614074558 22 145 0.0 1.6 0.00 0.00 0.00 88 1013.3
20240614074319 23 146 1.6 1.6 0.00 0.00 0.00 87 1016.0
20240614074050 23 146 0.0 1.6 0.00 0.00 0.00 87 1013.3
20240614073817 23 146 1.6 3.2 0.00 0.00 0.00 87 1016.1
20240614073542 23 146 0.0 3.2 0.00 0.00 0.00 87 1013.4
20240614073315 23 146 1.6 3.2 0.00 0.00 0.00 87 1016.1
20240614073035 23 146 1.6 3.2 0.00 0.00 0.00 87 1013.4
20240614072849 23 145 1.6 3.2 0.00 0.00 0.00 87 1016.1
20240614072600 23 146 0.0 1.6 0.00 0.00 0.00 87 1013.4
20240614072325 23 146 0.0 1.6 0.00 0.00 0.00 87 1016.1
20240614072054 23 145 0.0 1.6 0.00 0.00 0.00 87 1013.5
20240614071821 23 145 0.0 0.0 0.00 0.00 0.00 87 1016.3
20240614071551 23 146 0.0 0.0 0.00 0.00 0.00 87 1013.5
20240614071317 23 146 0.0 0.0 0.00 0.00 0.00 87 1016.4
20240614071041 23 146 0.0 0.0 0.00 0.00 0.00 86 1013.6
20240614070833 23 145 0.0 0.0 0.00 0.00 0.00 86 1016.3
20240614070536 23 145 0.0 0.0 0.00 0.00 0.00 86 1013.6
20240614070329 23 145 0.0 0.0 0.00 0.00 0.00 86 1016.3
20240614070029 23 145 0.0 0.0 0.00 0.00 0.00 86 1013.6
20240614065825 23 146 0.0 1.6 0.00 0.00 0.00 86 1016.3
20240614065525 23 146 0.0 3.2 0.00 0.00 0.00 86 1013.6
20240614065342 23 146 0.0 3.2 0.00 0.00 0.00 85 1016.4
20240614065048 23 145 0.0 3.2 0.00 0.00 0.00 85 1013.6
20240614064817 23 146 1.6 3.2 0.00 0.00 0.00 85 1016.4
20240614064553 23 145 0.0 1.6 0.00 0.00 0.00 85 1013.7
20240614064314 24 145 0.0 0.0 0.00 0.00 0.00 85 1016.4
20240614064035 23 146 0.0 0.0 0.00 0.00 0.00 85 1013.5
20240614063832 24 145 0.0 0.0 0.00 0.00 0.00 85 1016.3
20240614063556 23 146 0.0 0.0 0.00 0.00 0.00 85 1013.6
20240614063351 24 145 0.0 0.0 0.00 0.00 0.00 84 1016.3
20240614063029 23 145 0.0 0.0 0.00 0.00 0.00 84 1013.5
20240614062826 24 145 0.0 0.0 0.00 0.00 0.00 84 1016.3
20240614062509 24 146 0.0 3.2 0.00 0.00 0.00 84 1013.6
20240614062322 24 146 0.0 3.2 0.00 0.00 0.00 84 1016.4
20240614062002 24 146 0.0 3.2 0.00 0.00 0.00 84 1013.7
20240614061818 24 145 0.0 3.2 0.00 0.00 0.00 84 1016.4
20240614061615 24 145 0.0 3.2 0.00 0.00 0.00 84 1013.7
20240614061313 24 145 1.6 3.2 0.00 0.00 0.00 84 1016.4
20240614061059 24 146 0.0 3.2 0.00 0.00 0.00 84 1013.7
20240614060850 24 146 1.6 3.2 0.00 0.00 0.00 84 1016.5
20240614060530 24 146 0.0 3.2 0.00 0.00 0.00 84 1013.6
20240614060325 25 145 1.6 3.2 0.00 0.00 0.00 84 1016.3
20240614060052 24 147 1.6 3.2 0.00 0.00 0.00 83 1013.6
20240614055821 25 145 1.6 3.2 0.00 0.00 0.00 83 1016.5
20240614055522 24 145 0.0 3.2 0.00 0.00 0.00 83 1013.7
20240614055339 25 146 1.6 3.2 0.00 0.00 0.00 83 1016.5
20240614055046 24 145 1.6 4.8 0.00 0.00 0.00 83 1013.7
20240614054816 25 145 1.6 4.8 0.00 0.00 0.00 83 1016.4
20240614054536 24 146 0.0 4.8 0.00 0.00 0.00 82 1013.8
20240614054314 25 145 1.6 4.8 0.00 0.00 0.00 82 1016.4
20240614054017 25 145 1.6 4.8 0.00 0.00 0.00 82 1013.6
20240614053832 25 145 3.2 4.8 0.00 0.00 0.00 82 1016.4
20240614053508 25 146 1.6 4.8 0.00 0.00 0.00 82 1013.7
20240614053332 25 145 1.6 4.8 0.00 0.00 0.00 81 1016.4
20240614053103 25 145 1.6 4.8 0.00 0.00 0.00 81 1013.7
20240614052829 25 146 1.6 4.8 0.00 0.00 0.00 81 1016.5
20240614052558 25 147 1.6 6.4 0.00 0.00 0.00 81 1013.7
20240614052325 25 146 3.2 6.4 0.00 0.00 0.00 81 1016.4
20240614052053 25 146 3.2 8.0 0.00 0.00 0.00 81 1013.6
20240614051823 25 146 3.2 8.0 0.00 0.00 0.00 81 1016.4
20240614051546 25 137 4.8 8.0 0.00 0.00 0.00 81 1013.6
20240614051321 25 135 4.8 8.0 0.00 0.00 0.00 81 1016.4
20240614051034 25 145 3.2 9.7 0.00 0.00 0.00 81 1013.7
20240614050818 25 147 3.2 8.0 0.00 0.00 0.00 81 1016.4
20240614050524 25 147 3.2 8.0 0.00 0.00 0.00 80 1013.7
20240614050316 25 147 3.2 8.0 0.00 0.00 0.00 80 1016.4
20240614050107 25 147 3.2 8.0 0.00 0.00 0.00 80 1013.7
20240614045823 25 147 4.8 8.0 0.00 0.00 0.00 80 1016.5
20240614045552 25 147 1.6 8.0 0.00 0.00 0.00 80 1013.8
20240614045335 25 147 3.2 8.0 0.00 0.00 0.00 80 1016.4
20240614045029 25 147 3.2 8.0 0.00 0.00 0.00 80 1013.7
20240614044830 25 147 3.2 8.0 0.00 0.00 0.00 80 1016.5
20240614044520 25 147 3.2 8.0 0.00 0.00 0.00 79 1013.8
20240614044328 25 147 3.2 8.0 0.00 0.00 0.00 79 1016.5
20240614044012 25 147 1.6 4.8 0.00 0.00 0.00 79 1013.7
20240614043827 25 147 3.2 4.8 0.00 0.00 0.00 79 1016.4
20240614043503 25 147 3.2 6.4 0.00 0.00 0.00 79 1013.8
20240614043326 25 147 3.2 6.4 0.00 0.00 0.00 79 1016.4
20240614043058 25 145 1.6 6.4 0.00 0.00 0.00 79 1013.6
20240614042824 25 145 3.2 6.4 0.00 0.00 0.00 78 1016.4
20240614042548 25 145 3.2 6.4 0.00 0.00 0.00 78 1013.5
20240614042320 26 137 3.2 6.4 0.00 0.00 0.00 78 1016.3
20240614042040 25 129 1.6 6.4 0.00 0.00 0.00 78 1013.5
20240614041816 26 144 3.2 6.4 0.00 0.00 0.00 78 1016.2
20240614041534 25 130 1.6 6.4 0.00 0.00 0.00 78 1013.4
20240614041332 26 147 4.8 6.4 0.00 0.00 0.00 78 1016.2
20240614041032 25 135 3.2 8.0 0.00 0.00 0.00 78 1013.5
20240614040830 26 151 3.2 6.4 0.00 0.00 0.00 78 1016.3
20240614040519 25 150 1.6 9.7 0.00 0.00 0.00 78 1013.4
20240614040329 26 154 3.2 9.7 0.00 0.00 0.00 78 1016.2
20240614040006 25 149 3.2 9.7 0.00 0.00 0.00 78 1013.4
20240614035827 26 139 4.8 9.7 0.00 0.00 0.00 78 1016.1
20240614035556 25 152 3.2 8.0 0.00 0.00 0.00 78 1013.4
20240614035325 26 152 4.8 8.0 0.00 0.00 0.00 77 1016.0
20240614035046 26 152 3.2 8.0 0.00 0.00 0.00 77 1013.3
20240614034822 26 161 4.8 8.0 0.00 0.00 0.00 77 1016.0
20240614034538 26 150 4.8 11.3 0.00 0.00 0.00 77 1013.3
20240614034316 26 117 4.8 11.3 0.00 0.00 0.00 77 1016.1
20240614034002 26 152 4.8 11.3 0.00 0.00 0.00 77 1013.3
20240614033829 26 147 4.8 11.3 0.00 0.00 0.00 77 1016.0
20240614033600 26 145 3.2 8.0 0.00 0.00 0.00 77 1013.3
20240614033345 26 131 4.8 8.0 0.00 0.00 0.00 76 1015.9
20240614033036 26 133 4.8 8.0 0.00 0.00 0.00 76 1013.1
20240614032821 26 154 3.2 8.0 0.00 0.00 0.00 76 1015.9
20240614032527 26 152 3.2 6.4 0.00 0.00 0.00 76 1013.1
20240614032339 26 152 3.2 6.4 0.00 0.00 0.00 76 1015.8
20240614032016 26 144 3.2 6.4 0.00 0.00 0.00 76 1013.0
20240614031830 26 152 3.2 6.4 0.00 0.00 0.00 76 1015.8
20240614031558 26 148 1.6 6.4 0.00 0.00 0.00 76 1013.0
20240614031329 26 148 3.2 4.8 0.00 0.00 0.00 76 1015.7
20240614031047 26 148 0.0 4.8 0.00 0.00 0.00 75 1013.1
20240614030827 26 147 1.6 4.8 0.00 0.00 0.00 75 1015.6
20240614030539 26 148 1.6 4.8 0.00 0.00 0.00 75 1012.9
20240614030326 27 149 1.6 4.8 0.00 0.00 0.00 74 1015.5
20240614030039 26 149 1.6 8.0 0.00 0.00 0.00 74 1012.8
20240614025844 27 148 1.6 8.0 0.00 0.00 0.00 74 1015.5
20240614025602 26 148 1.6 8.0 0.00 0.00 0.00 74 1012.7
20240614025320 27 148 3.2 8.0 0.00 0.00 0.00 74 1015.3
20240614025053 27 148 3.2 6.4 0.00 0.00 0.00 73 1012.6
20240614024839 27 143 3.2 6.4 0.00 0.00 0.00 73 1015.3
20240614024524 27 143 1.6 6.4 0.00 0.00 0.00 73 1012.7
20240614024316 27 144 3.2 6.4 0.00 0.00 0.00 73 1015.4
20240614024016 27 144 1.6 6.4 0.00 0.00 0.00 72 1012.6
20240614023813 27 144 3.2 6.4 0.00 0.00 0.00 72 1015.3
20240614023511 27 144 1.6 6.4 0.00 0.00 0.00 72 1012.5
20240614023331 27 143 3.2 6.4 0.00 0.00 0.00 71 1015.2
20240614023008 27 143 3.2 6.4 0.00 0.00 0.00 71 1012.5
20240614022827 27 144 4.8 6.4 0.00 0.00 0.00 71 1015.2
20240614022558 27 144 3.2 6.4 0.00 0.00 0.00 71 1012.4
20240614022324 27 148 3.2 6.4 0.00 0.00 0.00 71 1015.0
20240614022052 27 137 3.2 6.4 0.00 0.00 0.00 70 1012.4
20240614021823 28 145 3.2 6.4 0.00 0.00 0.00 70 1015.1
20240614021556 27 147 3.2 8.0 0.00 0.00 0.00 70 1012.4
20240614021342 28 116 3.2 6.4 0.00 0.00 0.00 70 1015.0
20240614021017 27 145 3.2 6.4 0.00 0.00 0.00 69 1012.3
20240614020821 28 104 3.2 6.4 0.00 0.00 0.00 69 1015.0
20240614020507 28 118 1.6 6.4 0.00 0.00 0.00 69 1012.3
20240614020321 28 118 3.2 6.4 0.00 0.00 0.00 69 1015.0
20240614020103 28 117 1.6 6.4 0.00 0.00 0.00 68 1012.3
20240614015820 28 160 3.2 6.4 0.00 0.00 0.00 68 1015.0
20240614015558 28 87 3.2 6.4 0.00 0.00 0.00 68 1012.3
20240614015320 28 105 3.2 6.4 0.00 0.00 0.00 68 1015.0
20240614015058 28 120 0.0 4.8 0.00 0.00 0.00 68 1012.3
20240614014833 28 120 1.6 4.8 0.00 0.00 0.00 68 1015.0
20240614014552 28 120 1.6 4.8 0.00 0.00 0.00 67 1012.2
20240614014351 28 120 1.6 6.4 0.00 0.00 0.00 67 1014.9
20240614014025 28 104 1.6 6.4 0.00 0.00 0.00 66 1012.2
20240614013826 29 86 3.2 6.4 0.00 0.00 0.00 66 1014.9
20240614013508 28 93 3.2 6.4 0.00 0.00 0.00 66 1012.2
20240614013337 29 102 3.2 6.4 0.00 0.00 0.00 65 1014.8
20240614013043 29 94 3.2 9.7 0.00 0.00 0.00 65 1012.1
20240614012832 29 100 4.8 9.7 0.00 0.00 0.00 65 1014.9
20240614012532 29 97 3.2 9.7 0.00 0.00 0.00 64 1012.1
20240614012329 30 91 4.8 9.7 0.00 0.00 0.00 64 1014.9
20240614012026 30 107 3.2 9.7 0.00 0.00 0.00 64 1012.2
20240614011824 30 70 4.8 9.7 0.00 0.00 0.00 63 1014.9
20240614011516 30 65 3.2 11.3 0.00 0.00 0.00 63 1012.1
20240614011320 30 87 3.2 11.3 0.00 0.00 0.00 63 1014.8
20240614011059 30 101 3.2 14.5 0.00 0.00 0.00 63 1012.3
20240614010836 30 91 4.8 14.5 0.00 0.00 0.00 62 1014.9
20240614010532 30 145 4.8 14.5 0.00 0.00 0.00 62 1012.2
20240614010330 30 95 8.0 14.5 0.00 0.00 0.00 61 1014.9
20240614010016 30 123 3.2 14.5 0.00 0.00 0.00 61 1012.2
20240614005825 30 98 4.8 14.5 0.00 0.00 0.00 61 1014.9
20240614005512 30 98 6.4 14.5 0.00 0.00 0.00 61 1012.1
20240614005341 31 66 4.8 12.9 0.00 0.00 0.00 61 1014.8
20240614005054 30 127 4.8 12.9 0.00 0.00 0.00 61 1012.1
20240614004852 31 105 4.8 12.9 0.00 0.00 0.00 60 1014.9
20240614004524 31 120 4.8 12.9 0.00 0.00 0.00 60 1012.1
20240614004328 31 85 4.8 12.9 0.00 0.00 0.00 59 1014.8
20240614004006 31 106 6.4 12.9 0.00 0.00 0.00 59 1012.1
20240614003819 31 99 4.8 12.9 0.00 0.00 0.00 59 1014.8
20240614003558 31 97 3.2 17.7 0.00 0.00 0.00 59 1012.1
20240614003337 31 108 6.4 17.7 0.00 0.00 0.00 59 1014.8
20240614003032 31 95 6.4 17.7 0.00 0.00 0.00 58 1012.0
20240614002813 31 88 11.3 17.7 0.00 0.00 0.00 58 1014.6
20240614002523 31 83 8.0 16.1 0.00 0.00 0.00 58 1011.9
20240614002331 31 106 8.0 12.9 0.00 0.00 0.00 58 1014.6
20240614002004 31 131 4.8 14.5 0.00 0.00 0.00 58 1012.0
20240614001830 31 110 6.4 14.5 0.00 0.00 0.00 57 1014.7
20240614001557 31 154 6.4 14.5 0.00 0.00 0.00 57 1012.0
20240614001329 31 105 8.0 14.5 0.00 0.00 0.00 58 1014.6
20240614001052 31 106 3.2 14.5 0.00 0.00 0.00 57 1012.0
20240614000826 32 99 4.8 14.5 0.00 0.00 0.00 57 1014.5
20240614000540 31 112 4.8 14.5 0.00 0.00 0.00 57 1011.9
20240614000326 32 93 9.7 14.5 0.00 0.00 0.00 57 1014.6
20240614000042 31 86 3.2 14.5 0.00 0.00 0.00 56 1011.9
20240613235823 32 79 6.4 17.7 0.00 0.00 0.00 56 1014.6
20240613235532 31 102 4.8 17.7 0.00 0.00 0.00 56 1011.9
20240613235321 32 110 8.0 17.7 0.00 0.00 0.00 56 1014.6
20240613235024 31 82 6.4 16.1 0.00 0.00 0.00 56 1011.9
20240613234819 32 81 8.0 19.3 0.00 0.00 0.00 55 1014.5
20240613234516 31 127 6.4 19.3 0.00 0.00 0.00 55 1011.9
20240613234316 32 42 9.7 19.3 0.00 0.00 0.00 55 1014.5
20240613234039 32 174 9.7 19.3 0.00 0.00 0.00 54 1011.9
20240613233813 32 85 6.4 17.7 0.00 0.00 0.00 54 1014.5
20240613233532 32 96 8.0 17.7 0.00 0.00 0.00 54 1011.9
20240613233331 32 146 11.3 17.7 0.00 0.00 0.00 54 1014.6
20240613233018 32 149 8.0 16.1 0.00 0.00 0.00 54 1012.0
20240613232829 32 87 8.0 16.1 0.00 0.00 0.00 55 1014.6
20240613232507 32 94 6.4 14.5 0.00 0.00 0.00 55 1012.0
20240613232327 32 131 9.7 14.5 0.00 0.00 0.00 54 1014.6
20240613232002 32 122 6.4 14.5 0.00 0.00 0.00 53 1012.2
20240613231845 32 91 8.0 14.5 0.00 0.00 0.00 52 1014.8
20240613231534 32 66 4.8 14.5 0.00 0.00 0.00 52 1012.1
20240613231322 32 61 9.7 14.5 0.00 0.00 0.00 52 1014.8
20240613231021 32 79 3.2 14.5 0.00 0.00 0.00 54 1012.2
20240613230820 32 88 4.8 14.5 0.00 0.00 0.00 52 1014.9
20240613230522 32 68 4.8 14.5 0.00 0.00 0.00 51 1012.2
20240613230318 32 125 6.4 14.5 0.00 0.00 0.00 52 1014.9
20240613230025 32 33 4.8 11.3 0.00 0.00 0.00 52 1012.2
20240613225817 32 172 3.2 11.3 0.00 0.00 0.00 52 1014.9
20240613225559 32 92 3.2 11.3 0.00 0.00 0.00 51 1012.3
20240613225316 32 147 4.8 14.5 0.00 0.00 0.00 52 1014.9
20240613225054 32 66 3.2 16.1 0.00 0.00 0.00 52 1012.3
20240613224814 32 79 6.4 16.1 0.00 0.00 0.00 53 1015.0
20240613224549 32 77 8.0 17.7 0.00 0.00 0.00 53 1012.3
20240613224330 32 127 9.7 17.7 0.00 0.00 0.00 52 1015.0
20240613224038 32 77 9.7 17.7 0.00 0.00 0.00 52 1012.3
20240613223828 32 77 9.7 16.1 0.00 0.00 0.00 53 1015.0
20240613223533 32 58 6.4 12.9 0.00 0.00 0.00 53 1012.4
20240613223343 32 95 8.0 11.3 0.00 0.00 0.00 51 1015.0
20240613223106 32 27 4.8 14.5 0.00 0.00 0.00 52 1012.4
20240613222840 32 37 1.6 14.5 0.00 0.00 0.00 52 1015.0
20240613222527 32 71 6.4 17.7 0.00 0.00 0.00 52 1012.4
20240613222319 32 80 8.0 17.7 0.00 0.00 0.00 51 1015.1
20240613222019 32 92 8.0 17.7 0.00 0.00 0.00 52 1012.4
20240613221837 32 46 9.7 17.7 0.00 0.00 0.00 53 1015.1
20240613221543 32 138 3.2 16.1 0.00 0.00 0.00 53 1012.4
20240613221314 32 58 1.6 16.1 0.00 0.00 0.00 52 1015.0
20240613221035 32 118 6.4 17.7 0.00 0.00 0.00 51 1012.6
20240613220831 32 90 11.3 17.7 0.00 0.00 0.00 51 1015.1
20240613220535 32 118 3.2 17.7 0.00 0.00 0.00 53 1012.6
20240613220329 32 58 11.3 17.7 0.00 0.00 0.00 53 1015.3
20240613220027 32 174 8.0 12.9 0.00 0.00 0.00 53 1012.6
20240613215823 32 105 3.2 8.0 0.00 0.00 0.00 55 1015.3
20240613215550 32 152 4.8 11.3 0.00 0.00 0.00 52 1012.7
20240613215319 32 142 4.8 12.9 0.00 0.00 0.00 53 1015.3
20240613215044 32 130 4.8 12.9 0.00 0.00 0.00 52 1012.6
20240613214815 32 99 6.4 12.9 0.00 0.00 0.00 52 1015.3
20240613214539 32 89 4.8 14.5 0.00 0.00 0.00 53 1012.6
20240613214331 32 52 6.4 14.5 0.00 0.00 0.00 52 1015.3
20240613214032 32 102 4.8 16.1 0.00 0.00 0.00 51 1012.7
20240613213829 32 77 6.4 16.1 0.00 0.00 0.00 52 1015.4
20240613213527 32 69 8.0 16.1 0.00 0.00 0.00 51 1012.6
20240613213323 32 78 4.8 16.1 0.00 0.00 0.00 51 1015.4
20240613213013 32 91 6.4 16.1 0.00 0.00 0.00 52 1012.8
20240613212841 32 82 6.4 16.1 0.00 0.00 0.00 52 1015.4
20240613212545 32 115 3.2 12.9 0.00 0.00 0.00 52 1012.9
20240613212337 32 91 3.2 12.9 0.00 0.00 0.00 52 1015.5
20240613212018 32 135 4.8 9.7 0.00 0.00 0.00 52 1012.9
20240613211813 32 124 3.2 9.7 0.00 0.00 0.00 53 1015.5
20240613211512 32 264 3.2 9.7 0.00 0.00 0.00 52 1012.9
20240613211329 32 108 6.4 11.3 0.00 0.00 0.00 52 1015.6
20240613211055 32 102 4.8 12.9 0.00 0.00 0.00 53 1013.0
20240613210845 32 85 4.8 12.9 0.00 0.00 0.00 53 1015.7
20240613210529 32 114 6.4 12.9 0.00 0.00 0.00 52 1013.1
20240613210320 32 84 4.8 11.3 0.00 0.00 0.00 53 1015.7
20240613210021 32 79 3.2 14.5 0.00 0.00 0.00 52 1013.1
20240613205816 32 159 6.4 14.5 0.00 0.00 0.00 52 1015.7
20240613205513 32 89 1.6 14.5 0.00 0.00 0.00 52 1013.1
20240613205332 32 54 4.8 14.5 0.00 0.00 0.00 50 1015.7
20240613205007 32 10 6.4 12.9 0.00 0.00 0.00 53 1013.2
20240613204830 32 64 8.0 12.9 0.00 0.00 0.00 52 1015.8
20240613204604 32 64 3.2 12.9 0.00 0.00 0.00 53 1013.3
20240613204348 32 180 8.0 12.9 0.00 0.00 0.00 52 1016.0
20240613204030 32 127 3.2 12.9 0.00 0.00 0.00 52 1013.4
20240613203823 32 140 4.8 17.7 0.00 0.00 0.00 53 1016.0
20240613203521 32 154 8.0 17.7 0.00 0.00 0.00 54 1013.4
20240613203319 32 56 9.7 17.7 0.00 0.00 0.00 53 1016.0
20240613203018 32 100 3.2 11.3 0.00 0.00 0.00 56 1013.4
20240613202815 32 15 0.0 11.3 0.00 0.00 0.00 55 1016.0
20240613202558 32 100 3.2 14.5 0.00 0.00 0.00 54 1013.4
20240613202331 32 96 3.2 14.5 0.00 0.00 0.00 54 1016.1
20240613202056 32 96 8.0 14.5 0.00 0.00 0.00 55 1013.6
20240613201826 32 135 8.0 14.5 0.00 0.00 0.00 54 1016.1
20240613201548 32 81 4.8 14.5 0.00 0.00 0.00 56 1013.6
20240613201324 32 71 6.4 12.9 0.00 0.00 0.00 55 1016.2
20240613201037 32 172 3.2 12.9 0.00 0.00 0.00 57 1013.7
20240613200823 32 152 6.4 16.1 0.00 0.00 0.00 56 1016.3
20240613200529 31 134 4.8 16.1 0.00 0.00 0.00 57 1013.8
20240613200319 32 78 4.8 16.1 0.00 0.00 0.00 58 1016.4
20240613200022 31 81 8.0 14.5 0.00 0.00 0.00 59 1013.8
20240613195815 31 164 6.4 14.5 0.00 0.00 0.00 60 1016.4
20240613195513 31 95 6.4 14.5 0.00 0.00 0.00 58 1013.9
20240613195329 31 156 3.2 11.3 0.00 0.00 0.00 57 1016.4
20240613195005 31 50 0.0 12.9 0.00 0.00 0.00 57 1014.0
20240613194826 31 114 1.6 12.9 0.00 0.00 0.00 58 1016.5
20240613194605 31 144 4.8 12.9 0.00 0.00 0.00 58 1013.9
20240613194324 31 124 8.0 12.9 0.00 0.00 0.00 58 1016.5
20240613194048 31 131 4.8 11.3 0.00 0.00 0.00 58 1013.9
20240613193822 31 68 4.8 9.7 0.00 0.00 0.00 60 1016.5
20240613193538 31 218 3.2 9.7 0.00 0.00 0.00 58 1014.0
20240613193340 31 218 6.4 9.7 0.00 0.00 0.00 58 1016.5
20240613193101 31 189 3.2 11.3 0.00 0.00 0.00 59 1014.1
20240613192817 31 135 6.4 11.3 0.00 0.00 0.00 59 1016.7
20240613192553 31 95 1.6 11.3 0.00 0.00 0.00 58 1014.3
20240613192315 31 137 6.4 11.3 0.00 0.00 0.00 57 1016.7
20240613192045 31 81 4.8 12.9 0.00 0.00 0.00 58 1014.3
20240613191832 31 53 4.8 12.9 0.00 0.00 0.00 58 1016.8
20240613191508 31 96 3.2 11.3 0.00 0.00 0.00 58 1014.3
20240613191328 31 54 1.6 11.3 0.00 0.00 0.00 57 1016.8
20240613191101 31 162 1.6 12.9 0.00 0.00 0.00 57 1014.4
20240613190825 31 162 6.4 14.5 0.00 0.00 0.00 57 1016.9
20240613190600 31 128 6.4 14.5 0.00 0.00 0.00 59 1014.4
20240613190322 31 102 8.0 14.5 0.00 0.00 0.00 59 1016.9
20240613190047 31 107 4.8 9.7 0.00 0.00 0.00 58 1014.4
20240613185820 31 113 4.8 9.7 0.00 0.00 0.00 60 1017.0
20240613185538 31 139 4.8 9.7 0.00 0.00 0.00 59 1014.5
20240613185338 31 121 3.2 9.7 0.00 0.00 0.00 60 1016.9
20240613185101 31 110 3.2 9.7 0.00 0.00 0.00 59 1014.4
20240613184815 31 46 6.4 9.7 0.00 0.00 0.00 58 1016.9
20240613184610 31 69 3.2 19.3 0.00 0.00 0.00 59 1014.3
20240613184332 31 108 3.2 19.3 0.00 0.00 0.00 59 1016.9
20240613184047 31 92 6.4 19.3 0.00 0.00 0.00 60 1014.4
20240613183851 31 127 9.7 19.3 0.00 0.00 0.00 60 1017.0
20240613183518 31 94 6.4 17.7 0.00 0.00 0.00 61 1014.6
20240613183329 31 159 4.8 14.5 0.00 0.00 0.00 59 1017.1
20240613183011 31 106 4.8 14.5 0.00 0.00 0.00 59 1014.6
20240613182825 31 104 4.8 14.5 0.00 0.00 0.00 59 1017.1
20240613182505 31 139 4.8 12.9 0.00 0.00 0.00 59 1014.5
20240613182323 31 242 1.6 9.7 0.00 0.00 0.00 59 1017.1
20240613182057 31 128 3.2 12.9 0.00 0.00 0.00 60 1014.6
20240613181821 31 217 6.4 16.1 0.00 0.00 0.00 60 1017.1
20240613181550 30 200 6.4 16.1 0.00 0.00 0.00 60 1014.6
20240613181319 31 110 6.4 16.1 0.00 0.00 0.00 60 1017.1
20240613181040 31 134 6.4 16.1 0.00 0.00 0.00 61 1014.6
20240613180837 31 128 4.8 14.5 0.00 0.00 0.00 62 1017.3
20240613180511 30 84 6.4 14.5 0.00 0.00 0.00 60 1014.8
20240613180354 31 106 6.4 12.9 0.00 0.00 0.00 60 1017.3
20240613180042 30 110 4.8 12.9 0.00 0.00 0.00 61 1014.8
20240613175829 31 69 4.8 12.9 0.00 0.03 0.00 62 1017.4
20240613175534 30 102 4.8 12.9 0.00 0.03 0.00 62 1015.0
20240613175326 30 96 4.8 9.7 0.00 0.03 0.00 63 1017.5
20240613175029 30 263 3.2 17.7 0.00 0.03 0.00 62 1015.0
20240613174824 30 121 4.8 17.7 0.00 0.03 0.00 62 1017.5
20240613174507 30 164 11.3 19.3 0.00 0.03 0.00 63 1015.0
20240613174321 30 120 8.0 17.7 0.00 0.03 0.00 64 1017.5
20240613174002 30 85 4.8 17.7 0.00 0.03 0.00 63 1015.0
20240613173839 30 128 11.3 17.7 0.00 0.03 0.00 63 1017.4
20240613173535 30 167 8.0 17.7 0.00 0.03 0.00 64 1015.0
20240613173336 30 126 8.0 17.7 0.00 0.03 0.00 63 1017.5
20240613173100 30 125 11.3 17.7 0.00 0.03 0.00 63 1015.1
20240613172829 30 155 9.7 17.7 0.00 0.03 0.00 63 1017.5
20240613172528 30 160 8.0 17.7 0.00 0.03 0.00 66 1015.0
20240613172326 30 114 6.4 14.5 0.00 0.03 0.00 66 1017.5
20240613172026 30 121 1.6 14.5 0.00 0.03 0.00 65 1015.0
20240613171825 30 146 6.4 14.5 0.00 0.03 0.00 65 1017.5
20240613171523 29 79 6.4 14.5 0.00 0.03 0.00 65 1015.1
20240613171320 30 92 6.4 14.5 0.00 0.03 0.00 65 1017.4
20240613171007 29 121 4.8 16.1 0.00 0.03 0.00 64 1015.0
20240613170816 30 139 8.0 17.7 0.00 0.03 0.00 63 1017.4
20240613170501 29 135 9.7 17.7 0.00 0.03 0.00 65 1015.0
20240613170332 29 152 9.7 17.7 0.00 0.03 0.00 66 1017.3
20240613170055 29 133 11.3 17.7 0.00 0.03 0.00 66 1014.8
20240613165848 30 154 12.9 17.7 0.00 0.23 0.00 65 1017.4
20240613165527 29 145 9.7 16.1 0.00 0.23 0.00 66 1014.9
20240613165344 29 208 8.0 14.5 0.00 0.23 0.00 66 1017.3
20240613165053 29 125 3.2 12.9 0.00 0.23 0.00 69 1014.9
20240613164822 29 164 4.8 12.9 0.00 0.23 0.00 67 1017.3
20240613164556 28 166 8.0 14.5 0.00 0.23 0.00 67 1014.9
20240613164319 28 151 6.4 12.9 0.00 0.23 0.00 69 1017.3
20240613164043 28 139 4.8 14.5 0.00 0.23 0.00 70 1014.9
20240613163817 28 154 11.3 14.5 0.00 0.23 0.00 67 1017.3
20240613163537 28 125 4.8 14.5 0.00 0.23 0.00 67 1014.9
20240613163314 29 228 11.3 14.5 0.00 0.23 0.00 66 1017.3
20240613163040 28 175 6.4 12.9 0.00 0.23 0.00 68 1014.9
20240613162830 29 152 8.0 12.9 0.00 0.23 0.00 68 1017.3
20240613162516 28 186 8.0 14.5 0.00 0.23 0.00 71 1014.8
20240613162327 28 183 6.4 12.9 0.00 0.23 0.00 71 1017.3
20240613162009 28 158 4.8 12.9 0.00 0.23 0.00 71 1014.8
20240613161842 28 116 6.4 12.9 0.00 0.23 0.00 71 1017.4
20240613161541 27 154 6.4 11.3 0.00 0.23 0.00 70 1014.9
20240613161337 28 195 6.4 12.9 0.00 0.23 0.00 70 1017.3
20240613161017 27 197 6.4 14.5 0.00 0.23 0.00 70 1014.8
20240613160833 28 224 6.4 14.5 0.00 0.23 0.00 70 1017.2
20240613160504 27 170 9.7 14.5 0.00 0.23 0.00 71 1014.8
20240613160327 28 223 8.0 16.1 0.00 0.23 0.00 72 1017.2
20240613160055 27 193 9.7 16.1 0.00 0.25 0.00 72 1014.8
20240613155836 28 166 12.9 17.7 0.00 0.25 0.00 71 1017.2
20240613155543 28 187 9.7 16.1 0.00 0.25 0.00 71 1014.8
20240613155329 28 181 8.0 17.7 0.00 0.25 0.00 73 1017.2
20240613155036 27 196 6.4 11.3 0.00 0.25 0.00 74 1014.8
20240613154824 27 150 9.7 16.1 0.00 0.25 0.00 74 1017.2
20240613154529 27 196 8.0 16.1 0.00 0.25 0.00 75 1014.8
20240613154320 27 197 6.4 16.1 0.00 0.25 0.00 75 1017.3
20240613154023 27 186 9.7 16.1 0.00 0.25 0.00 75 1015.0
20240613153818 27 204 8.0 14.5 0.00 0.25 0.00 74 1017.4
20240613153516 27 216 9.7 16.1 0.00 0.25 0.00 74 1015.0
20240613153314 27 199 11.3 16.1 0.00 0.25 0.00 73 1017.4
20240613153012 27 212 11.3 16.1 0.00 0.25 0.00 73 1014.9
20240613152831 28 187 11.3 16.1 0.00 0.25 0.00 72 1017.3
20240613152500 27 149 9.7 16.1 0.00 0.25 0.00 73 1015.0
20240613152331 28 170 11.3 16.1 0.00 0.25 0.00 75 1017.4
20240613152055 27 139 6.4 16.1 0.00 0.25 0.00 76 1015.0
20240613151830 27 168 11.3 17.7 0.00 0.25 0.00 77 1017.3
20240613151547 27 185 6.4 14.5 0.00 0.25 0.00 77 1014.9
20240613151350 27 154 8.0 14.5 0.00 0.25 0.00 78 1017.4
20240613151009 27 159 3.2 19.3 0.00 0.25 0.00 77 1014.9
20240613150829 27 76 6.4 19.3 0.00 0.25 0.00 78 1017.3
20240613150602 27 178 11.3 19.3 0.00 0.25 0.00 77 1014.9
20240613150328 27 143 11.3 16.1 0.00 0.25 0.00 78 1017.3
20240613150054 27 149 8.0 16.1 0.00 0.25 0.00 78 1015.0
20240613145845 27 189 6.4 12.9 0.00 0.25 0.00 80 1017.4
20240613145525 26 120 4.8 12.9 0.00 0.25 0.00 81 1015.0
20240613145321 27 110 8.0 12.9 0.00 0.25 0.00 81 1017.4
20240613145010 26 131 6.4 12.9 0.00 0.25 0.00 81 1015.1
20240613144821 26 195 8.0 12.9 0.00 0.25 0.00 81 1017.5
20240613144559 26 199 4.8 12.9 0.00 0.25 0.00 81 1015.1
20240613144341 26 186 8.0 12.9 0.00 0.25 0.00 81 1017.4
20240613144028 26 171 8.0 14.5 0.00 0.25 0.00 81 1015.1
20240613143821 26 229 8.0 14.5 0.00 0.25 0.00 84 1017.4
20240613143517 26 196 8.0 12.9 0.00 0.25 0.00 84 1015.2
20240613143315 26 162 3.2 8.0 0.00 0.25 0.00 85 1017.5
20240613143002 26 157 4.8 8.0 0.00 0.25 0.00 85 1015.1
20240613142815 26 150 6.4 9.7 0.00 0.25 0.00 85 1017.4
20240613142559 26 145 3.2 9.7 0.00 0.25 0.00 86 1015.0
20240613142329 26 169 4.8 9.7 0.00 0.25 0.00 86 1017.3
20240613142047 25 189 4.8 12.9 0.00 0.25 0.00 87 1015.1
20240613141826 25 172 4.8 12.9 0.00 0.25 0.00 87 1017.4
20240613141546 25 152 6.4 12.9 0.00 0.25 0.00 87 1015.1
20240613141321 25 151 8.0 12.9 0.00 0.25 0.00 88 1017.4
20240613141026 25 102 3.2 8.0 0.00 0.25 0.00 89 1015.0
20240613140840 25 136 6.4 9.7 0.00 0.25 0.00 89 1017.3
20240613140553 25 149 3.2 8.0 0.00 0.25 0.00 90 1015.0
20240613140338 25 116 4.8 8.0 0.00 0.25 0.00 90 1017.4
20240613140037 24 127 3.2 8.0 0.00 0.28 0.00 92 1014.9
20240613135831 24 180 4.8 8.0 0.00 0.28 0.00 92 1017.3
20240613135533 24 166 6.4 8.0 0.00 0.28 0.00 92 1014.9
20240613135351 24 159 3.2 8.0 0.00 0.28 0.00 93 1017.2
20240613135052 23 171 4.8 8.0 0.00 0.28 0.00 93 1014.9
20240613134849 24 170 6.4 8.0 0.00 0.28 0.00 93 1017.1
20240613134533 23 170 3.2 6.4 0.00 0.28 0.00 94 1014.8
20240613134327 23 154 3.2 8.0 0.00 0.28 0.00 94 1017.1
20240613134005 23 153 1.6 8.0 0.00 0.28 0.00 94 1014.7
20240613133826 23 153 3.2 8.0 0.00 0.28 0.00 94 1017.0
20240613133535 23 153 1.6 4.8 0.00 0.28 0.00 95 1014.8
20240613133323 23 152 3.2 4.8 0.00 0.28 0.00 95 1017.0
20240613133123 23 152 3.2 6.4 0.00 0.28 0.00 95 1014.8
20240613132843 23 153 1.6 6.4 0.00 0.28 0.00 95 1017.1
20240613132543 22 153 1.6 6.4 0.00 0.28 0.00 95 1014.7
20240613132326 23 108 3.2 6.4 0.00 0.28 0.00 95 1017.0
20240613132037 22 129 3.2 6.4 0.00 0.28 0.00 95 1014.7
20240613131822 22 85 1.6 6.4 0.00 0.28 0.00 95 1017.0
20240613131532 22 85 3.2 6.4 0.00 0.28 0.00 95 1014.7
20240613131320 22 74 4.8 6.4 0.00 0.28 0.00 95 1017.0
20240613131025 22 92 1.6 6.4 0.00 0.28 0.00 95 1014.6
20240613130837 22 86 3.2 6.4 0.00 0.28 0.00 95 1016.9
20240613130553 22 100 3.2 6.4 0.00 0.28 0.00 95 1014.5
20240613130333 22 84 4.8 6.4 0.00 0.28 0.00 95 1016.9